Aeroporto :







RITROVATECI SU...

 
LOGIN :

Iscrizione | Disclaimer

   EN    FR    IT 

 









Sommario :    VFR   VFR Marginale   IFR   IFR Intensivo   IFR Molto Intensivo
Visibilità : 
Base nubi : 
>= 8 km
>= 3000ft
5 / 8 km
1000 / 3000 ft
1500m / 5 km
500 / 1000 ft
800 / 1500m
200 / 500 ft
< 800m
< 200 ft
Simboli :   Temporali  Nebbia  Neve Forte  Precipitazioni Forti  Vento > 20 kt






- Altitudine del aeroporto : 787 ft
- Codice IATA : RUT


KRUT - Rutland - Southern Vermont Regional

ULTIMO METAR :
  • 200956Z AUTO 00000KT 10SM OVC065 M13/M16 A3035 RMK AO2 SLP285 T11331161 FZRANO $

METARs OBSOLETI :
  • 200856Z AUTO 16004KT 10SM FEW065 M13/M16 A3033 RMK AO2 SLP281 T11281161 50002 FZRANO $
  • 200756Z AUTO 32003KT 10SM FEW065 M11/M17 A3034 RMK AO2 SLP283 T11061167 FZRANO $

TAF KRUT
Valido dal 20 a 06 ore il 21 a 06 ore UTC


200527Z 2006/2106 30005KT P6SM SCT060



MetMap, La meteo Aeronautica in un colpo d'occhio ! - Copyright ORBIFLY Dicembre 2007 - Disclaimer

ORBIFLY MET'MAP TEAM :

Programmazione e sviluppo : Alexandra Zaïnal
Concezione : Baudouin d'Aumeries
Aiuto per la programmazione : Marc-Olivier Méhu
Supporto tecnico e logistico : Manuel Goepfert
Aiuto per la traduzione : Arnaldo La Scala

Contatto : metmap@orbifly.com




FONTI E CREDITI :

   NOAA